createdAt,value
2018-09-20T00:01:35.136Z,20.97
2018-09-20T00:04:05.635Z,21.39
2018-09-20T00:06:36.057Z,21.71
2018-09-20T00:09:07.836Z,20.64
2018-09-20T00:11:38.597Z,20.65
2018-09-20T00:14:08.916Z,21.30
2018-09-20T00:16:39.700Z,21.74
2018-09-20T00:19:10.256Z,21.89
2018-09-20T00:21:40.804Z,21.78
2018-09-20T00:24:11.408Z,21.82
2018-09-20T00:26:42.023Z,22.06
2018-09-20T00:29:12.728Z,21.26
2018-09-20T00:31:43.749Z,20.03
2018-09-20T00:34:14.345Z,19.42
2018-09-20T00:36:48.069Z,19.27
2018-09-20T00:39:18.517Z,19.50
2018-09-20T00:41:49.438Z,19.58
2018-09-20T00:44:19.698Z,19.31
2018-09-20T00:46:50.184Z,19.52
2018-09-20T00:49:21.364Z,20.43
2018-09-20T00:51:51.604Z,20.79
2018-09-20T00:54:22.259Z,21.19
2018-09-20T00:56:52.776Z,20.51
2018-09-20T00:59:23.498Z,19.76
2018-09-20T01:01:54.112Z,19.77
2018-09-20T01:04:24.624Z,20.16
2018-09-20T01:06:55.156Z,20.81
2018-09-20T01:09:25.705Z,21.09
2018-09-20T01:11:56.355Z,20.94
2018-09-20T01:14:26.864Z,21.00
2018-09-20T01:16:57.142Z,21.20
2018-09-20T01:19:27.836Z,20.81
2018-09-20T01:21:58.651Z,20.71
2018-09-20T01:24:29.449Z,20.71
2018-09-20T01:27:00.948Z,20.70
2018-09-20T01:29:32.324Z,20.68
2018-09-20T01:32:02.927Z,20.64
2018-09-20T01:34:33.464Z,21.00
2018-09-20T01:37:03.756Z,21.08
2018-09-20T01:39:34.332Z,20.97
2018-09-20T01:42:04.887Z,20.96
2018-09-20T01:44:35.401Z,20.39
2018-09-20T01:47:06.152Z,20.12
2018-09-20T01:49:36.976Z,20.35
2018-09-20T01:52:10.779Z,19.29
2018-09-20T01:54:41.397Z,19.05
2018-09-20T01:57:11.979Z,18.76
2018-09-20T01:59:42.265Z,18.70
2018-09-20T02:02:12.772Z,18.66
2018-09-20T02:04:43.036Z,18.84
2018-09-20T02:07:13.543Z,19.05
2018-09-20T02:09:44.233Z,19.37
2018-09-20T02:12:16.033Z,19.20
2018-09-20T02:14:46.749Z,19.36
2018-09-20T02:17:17.395Z,20.09
2018-09-20T02:19:48.224Z,20.34
2018-09-20T02:22:18.734Z,20.03
2018-09-20T02:24:49.529Z,19.81
2018-09-20T02:27:20.038Z,19.46
2018-09-20T02:29:50.547Z,19.16
2018-09-20T02:32:21.226Z,19.46
2018-09-20T02:34:52.037Z,19.95
2018-09-20T02:37:22.501Z,19.69
2018-09-20T02:39:53.156Z,19.85
2018-09-20T02:42:23.888Z,20.10
2018-09-20T02:44:54.451Z,20.43
2018-09-20T02:47:24.967Z,20.04
2018-09-20T02:49:55.501Z,20.05
2018-09-20T02:52:26.319Z,20.70
2018-09-20T02:54:56.631Z,21.10
2018-09-20T02:57:27.380Z,21.28
2018-09-20T02:59:58.288Z,21.45
2018-09-20T03:02:28.820Z,21.60
2018-09-20T03:04:59.496Z,21.66
2018-09-20T03:07:29.847Z,21.69
2018-09-20T03:10:00.341Z,21.61
2018-09-20T03:12:30.916Z,21.61
2018-09-20T03:15:01.440Z,20.95
2018-09-20T03:17:33.722Z,20.61
2018-09-20T03:22:40.956Z,19.95
2018-09-20T03:25:11.529Z,19.62
2018-09-20T03:27:42.217Z,20.20
2018-09-20T03:30:13.195Z,20.37
2018-09-20T03:32:44.209Z,20.53
2018-09-20T03:35:15.028Z,20.47
2018-09-20T03:37:45.756Z,19.56
2018-09-20T03:40:16.489Z,19.05
2018-09-20T03:42:47.005Z,19.01
2018-09-20T03:45:17.673Z,19.40
2018-09-20T03:47:48.460Z,18.90
2018-09-20T03:50:18.936Z,18.91
2018-09-20T03:52:49.548Z,18.56
2018-09-20T03:55:20.784Z,18.77
2018-09-20T03:57:51.321Z,18.76
2018-09-20T04:00:21.563Z,18.51
2018-09-20T04:02:52.062Z,18.62
2018-09-20T04:05:22.268Z,18.79
2018-09-20T04:07:53.404Z,18.26
2018-09-20T04:10:24.892Z,19.52
2018-09-20T04:12:55.171Z,19.84
2018-09-20T04:15:25.704Z,20.00
2018-09-20T04:17:56.955Z,19.31
2018-09-20T04:20:27.884Z,19.77
2018-09-20T04:22:59.240Z,19.94
2018-09-20T04:25:29.840Z,19.27
2018-09-20T04:28:00.375Z,18.79
2018-09-20T04:30:30.786Z,18.50
2018-09-20T04:33:01.223Z,18.66
2018-09-20T04:35:31.888Z,18.52
2018-09-20T04:38:02.423Z,18.48
2018-09-20T04:40:32.995Z,18.29
2018-09-20T04:43:04.069Z,18.19
2018-09-20T04:45:34.811Z,18.16
2018-09-20T04:48:05.511Z,18.19
2018-09-20T04:50:36.911Z,18.52
2018-09-20T04:53:07.441Z,18.41
2018-09-20T04:55:38.025Z,18.43
2018-09-20T04:58:08.287Z,18.28
2018-09-20T05:00:38.687Z,18.22
2018-09-20T05:03:09.195Z,18.22
2018-09-20T05:05:39.655Z,18.08
2018-09-20T05:08:10.381Z,18.16
2018-09-20T05:10:40.892Z,18.17
2018-09-20T05:13:11.679Z,18.44
2018-09-20T05:15:42.188Z,18.50
2018-09-20T05:18:12.781Z,18.87
2018-09-20T05:20:43.441Z,19.07
2018-09-20T05:23:14.724Z,19.51
2018-09-20T05:25:45.248Z,19.94
2018-09-20T05:28:15.735Z,20.24
2018-09-20T05:30:46.042Z,20.53
2018-09-20T05:33:16.853Z,20.38
2018-09-20T05:35:47.761Z,20.02
2018-09-20T05:38:18.257Z,20.57
2018-09-20T05:40:48.820Z,20.78
2018-09-20T05:43:19.398Z,21.02
2018-09-20T05:45:49.948Z,21.26
2018-09-20T05:48:20.727Z,20.78
2018-09-20T05:50:51.260Z,20.20
2018-09-20T05:53:21.907Z,20.44
2018-09-20T05:55:52.531Z,20.32
2018-09-20T05:58:23.095Z,20.42
2018-09-20T06:00:53.664Z,20.65
2018-09-20T06:03:24.431Z,21.29
2018-09-20T06:05:55.137Z,21.68
2018-09-20T06:08:26.106Z,21.30
2018-09-20T06:10:56.660Z,21.70
2018-09-20T06:13:27.179Z,21.96
2018-09-20T06:15:58.144Z,21.99
2018-09-20T06:18:31.624Z,21.00
2018-09-20T06:21:02.449Z,20.87
2018-09-20T06:23:32.987Z,20.90
2018-09-20T06:26:03.554Z,20.95
2018-09-20T06:28:33.992Z,20.87
2018-09-20T06:31:05.044Z,20.73
2018-09-20T06:33:35.346Z,20.60
2018-09-20T06:36:07.818Z,20.46
2018-09-20T06:38:38.342Z,21.13
2018-09-20T06:41:10.266Z,22.07
2018-09-20T06:43:41.200Z,21.95
2018-09-20T06:46:11.908Z,22.21
2018-09-20T06:48:42.169Z,21.72
2018-09-20T06:51:12.968Z,20.95
2018-09-20T06:53:43.361Z,20.80
2018-09-20T06:56:14.151Z,20.59
2018-09-20T06:58:44.428Z,20.53
2018-09-20T07:01:14.819Z,20.90
2018-09-20T07:03:45.114Z,21.64
2018-09-20T07:06:15.654Z,22.10
2018-09-20T07:08:46.141Z,22.50
2018-09-20T07:11:16.731Z,23.07
2018-09-20T07:13:47.396Z,23.02
2018-09-20T07:16:18.260Z,22.63
2018-09-20T07:18:48.808Z,22.68
2018-09-20T07:21:19.093Z,22.07
2018-09-20T07:23:49.694Z,22.06
2018-09-20T07:26:19.976Z,22.69
2018-09-20T07:28:50.304Z,23.40
2018-09-20T07:31:21.255Z,23.09
2018-09-20T07:33:51.797Z,23.43
2018-09-20T07:36:22.069Z,23.45
2018-09-20T07:38:52.634Z,23.47
2018-09-20T07:41:23.416Z,22.93
2018-09-20T07:43:53.937Z,23.00
2018-09-20T07:46:24.236Z,23.82
2018-09-20T07:48:54.651Z,24.68
2018-09-20T07:51:25.173Z,24.42
2018-09-20T07:53:56.379Z,24.14
2018-09-20T07:56:26.639Z,23.62
2018-09-20T07:58:57.199Z,23.48
2018-09-20T08:01:28.299Z,24.52
2018-09-20T08:03:58.966Z,24.05
2018-09-20T08:06:29.309Z,23.72
2018-09-20T08:08:59.829Z,23.89
2018-09-20T08:11:30.607Z,24.48
2018-09-20T08:14:01.148Z,24.97
2018-09-20T08:16:32.307Z,25.51
2018-09-20T08:19:03.594Z,25.88
2018-09-20T08:21:34.170Z,25.56
2018-09-20T08:24:04.854Z,25.43
2018-09-20T08:26:35.386Z,25.71
2018-09-20T08:29:07.016Z,25.79
2018-09-20T08:31:37.516Z,25.99
2018-09-20T08:34:08.084Z,26.01
2018-09-20T08:36:38.984Z,26.14
2018-09-20T08:39:11.664Z,26.62
2018-09-20T08:41:43.224Z,26.65
2018-09-20T08:44:13.904Z,26.70
2018-09-20T08:46:44.200Z,26.48
2018-09-20T08:49:14.612Z,26.48
2018-09-20T08:51:45.244Z,26.48
2018-09-20T08:54:16.792Z,26.77
2018-09-20T08:56:47.655Z,26.92
2018-09-20T08:59:19.329Z,27.44
2018-09-20T09:01:49.820Z,27.55
2018-09-20T09:04:20.327Z,28.14
2018-09-20T09:06:50.927Z,28.51
2018-09-20T09:09:21.284Z,28.19
2018-09-20T09:11:52.637Z,28.32
2018-09-20T09:14:23.080Z,28.86
2018-09-20T09:16:53.383Z,29.14
2018-09-20T09:19:24.249Z,29.41
2018-09-20T09:21:54.474Z,29.76
2018-09-20T09:24:25.008Z,35.36
2018-09-20T09:26:55.580Z,43.08
2018-09-20T09:29:26.340Z,48.13
2018-09-20T09:31:56.592Z,51.06
2018-09-20T09:34:28.645Z,49.96
2018-09-20T09:36:59.483Z,47.73
2018-09-20T09:39:30.809Z,47.81
2018-09-20T09:42:01.479Z,47.37
2018-09-20T09:44:32.284Z,48.39
2018-09-20T09:47:03.604Z,52.12
2018-09-20T09:49:34.729Z,54.46
2018-09-20T09:52:05.387Z,55.98
2018-09-20T09:54:37.462Z,55.59
2018-09-20T09:57:08.488Z,57.04
2018-09-20T09:59:39.594Z,57.57
2018-09-20T10:02:10.904Z,57.06
2018-09-20T10:04:41.855Z,57.33
2018-09-20T10:07:12.682Z,57.01
2018-09-20T10:09:44.012Z,56.55
2018-09-20T10:12:15.084Z,55.40
2018-09-20T10:14:46.167Z,50.66
2018-09-20T10:17:17.233Z,49.04
2018-09-20T10:19:47.767Z,49.01
2018-09-20T10:22:20.419Z,47.47
2018-09-20T10:24:50.834Z,46.11
2018-09-20T10:27:21.091Z,46.76
2018-09-20T10:29:51.660Z,47.74
2018-09-20T10:32:22.335Z,45.87
2018-09-20T10:34:53.270Z,44.60
2018-09-20T10:37:23.552Z,45.11
2018-09-20T10:39:54.181Z,46.76
2018-09-20T10:42:24.415Z,47.93
2018-09-20T10:44:55.130Z,46.34
2018-09-20T10:47:25.825Z,44.27
2018-09-20T10:49:56.508Z,39.98
2018-09-20T10:52:27.298Z,36.77
2018-09-20T10:54:57.876Z,35.63
2018-09-20T10:57:28.461Z,33.33
2018-09-20T10:59:59.182Z,32.79
2018-09-20T11:02:29.933Z,33.07
2018-09-20T11:05:00.577Z,32.51
2018-09-20T11:08:01.108Z,32.82
2018-09-20T11:10:31.423Z,33.36
2018-09-20T11:13:01.990Z,33.39
2018-09-20T11:15:32.833Z,32.08
2018-09-20T11:18:03.136Z,32.06
2018-09-20T11:20:36.784Z,31.55
2018-09-20T11:23:07.296Z,32.35
2018-09-20T11:25:37.688Z,32.62
2018-09-20T11:28:08.021Z,31.54
2018-09-20T11:30:38.557Z,32.07
2018-09-20T11:33:10.520Z,33.58
2018-09-20T11:35:41.065Z,34.12
2018-09-20T11:38:11.909Z,34.50
2018-09-20T11:40:42.701Z,33.78
2018-09-20T11:43:15.197Z,33.82
2018-09-20T11:45:45.957Z,34.09
2018-09-20T11:48:16.646Z,33.84
2018-09-20T11:50:48.090Z,34.61
2018-09-20T11:53:18.806Z,34.51
2018-09-20T11:55:49.368Z,33.70
2018-09-20T11:58:19.904Z,32.21
2018-09-20T12:00:50.420Z,32.56
2018-09-20T12:03:20.944Z,31.91
2018-09-20T12:05:51.509Z,33.00
2018-09-20T12:08:21.963Z,33.47
2018-09-20T12:10:52.648Z,34.02
2018-09-20T12:13:23.653Z,34.82
2018-09-20T12:15:54.371Z,34.40
2018-09-20T12:18:25.064Z,34.43
2018-09-20T12:20:56.388Z,35.51
2018-09-20T12:23:26.915Z,35.44
2018-09-20T12:25:57.669Z,35.34
2018-09-20T12:28:28.566Z,35.22
2018-09-20T12:30:59.230Z,35.19
2018-09-20T12:33:29.755Z,35.41
2018-09-20T12:36:00.332Z,36.05
2018-09-20T12:38:30.768Z,36.34
2018-09-20T12:41:01.041Z,36.81
2018-09-20T12:43:31.507Z,35.57
2018-09-20T12:46:02.072Z,33.21
2018-09-20T12:48:32.904Z,33.14
2018-09-20T12:51:03.483Z,34.82
2018-09-20T12:53:34.032Z,35.61
2018-09-20T12:56:04.603Z,35.40
2018-09-20T12:58:38.290Z,36.22
2018-09-20T13:01:12.038Z,36.59
2018-09-20T13:03:43.416Z,36.00
2018-09-20T13:06:13.934Z,33.15
2018-09-20T13:08:44.514Z,31.27
2018-09-20T13:11:15.102Z,30.30
2018-09-20T13:13:45.644Z,29.80
2018-09-20T13:16:16.228Z,29.70
2018-09-20T13:18:46.495Z,29.52
2018-09-20T13:21:17.138Z,29.99
2018-09-20T13:23:47.646Z,29.09
2018-09-20T13:26:18.265Z,30.71
2018-09-20T13:28:48.511Z,30.58
2018-09-20T13:31:19.056Z,30.67
2018-09-20T13:33:49.604Z,32.07
2018-09-20T13:36:20.166Z,32.09
2018-09-20T13:38:50.580Z,33.06
2018-09-20T13:41:21.734Z,33.49
2018-09-20T13:43:51.983Z,33.46
2018-09-20T13:46:22.500Z,33.68
2018-09-20T13:48:53.004Z,32.72
2018-09-20T13:51:23.247Z,32.76
2018-09-20T13:53:54.595Z,32.39
2018-09-20T13:56:25.170Z,32.17
2018-09-20T13:58:55.740Z,31.85
2018-09-20T14:01:26.550Z,31.54
2018-09-20T14:03:57.053Z,31.45
2018-09-20T14:06:27.585Z,31.26
2018-09-20T14:08:58.063Z,31.34
2018-09-20T14:11:28.597Z,31.11
2018-09-20T14:13:58.833Z,31.07
2018-09-20T14:16:29.381Z,31.48
2018-09-20T14:19:00.039Z,31.22
2018-09-20T14:21:30.510Z,31.02
2018-09-20T14:24:00.992Z,30.72
2018-09-20T14:26:31.547Z,30.90
2018-09-20T14:29:02.351Z,30.97
2018-09-20T14:31:32.619Z,30.91
2018-09-20T14:34:02.849Z,30.47
2018-09-20T14:36:33.078Z,31.02
2018-09-20T14:39:05.043Z,31.11
2018-09-20T14:41:35.567Z,30.71
2018-09-20T14:44:06.722Z,30.77
2018-09-20T14:46:37.307Z,30.60
2018-09-20T14:49:08.392Z,31.06
2018-09-20T14:51:38.855Z,31.35
2018-09-20T14:54:09.528Z,31.86
2018-09-20T14:56:40.546Z,31.76
2018-09-20T14:59:12.872Z,31.79
2018-09-20T15:01:43.242Z,31.29
2018-09-20T15:04:14.619Z,31.15
2018-09-20T15:06:44.897Z,30.76
2018-09-20T15:09:15.421Z,30.50
2018-09-20T15:11:45.936Z,30.19
2018-09-20T15:14:16.166Z,30.27
2018-09-20T15:16:46.836Z,30.32
2018-09-20T15:19:17.574Z,29.78
2018-09-20T15:21:48.396Z,30.02
2018-09-20T15:24:18.978Z,30.11
2018-09-20T15:26:49.505Z,29.75
2018-09-20T15:29:19.988Z,30.23
2018-09-20T15:31:50.661Z,30.30
2018-09-20T15:34:21.764Z,30.18
2018-09-20T15:36:52.328Z,30.17
2018-09-20T15:39:22.857Z,30.08
2018-09-20T15:41:53.552Z,30.16
2018-09-20T15:44:24.491Z,29.57
2018-09-20T15:46:55.246Z,29.44
2018-09-20T15:49:26.199Z,29.20
2018-09-20T15:51:56.909Z,29.61
2018-09-20T15:54:27.465Z,29.71
2018-09-20T15:56:57.996Z,29.26
2018-09-20T15:59:28.568Z,29.21
2018-09-20T16:01:59.100Z,28.99
2018-09-20T16:04:29.321Z,29.09
2018-09-20T16:06:59.804Z,29.32
2018-09-20T16:09:30.044Z,29.02
2018-09-20T16:12:00.305Z,28.61
2018-09-20T16:14:31.081Z,28.53
2018-09-20T16:17:02.247Z,28.48
2018-09-20T16:19:32.749Z,28.41
2018-09-20T16:22:03.281Z,28.38
2018-09-20T16:24:33.816Z,28.60
2018-09-20T16:27:04.071Z,28.71
2018-09-20T16:30:18.145Z,28.69
2018-09-20T16:35:10.622Z,28.42
2018-09-20T16:37:57.671Z,28.07
2018-09-20T16:40:37.620Z,28.28
2018-09-20T16:43:08.160Z,28.26
2018-09-20T16:45:39.217Z,28.30
2018-09-20T16:48:09.523Z,28.35
2018-09-20T16:50:40.060Z,28.24
2018-09-20T16:53:10.866Z,28.17
2018-09-20T16:55:41.492Z,28.35
2018-09-20T16:58:12.081Z,28.29
2018-09-20T17:00:42.654Z,28.17
2018-09-20T17:03:13.208Z,28.04
2018-09-20T17:05:44.016Z,28.02
2018-09-20T17:08:14.573Z,27.99
2018-09-20T17:10:45.518Z,27.66
2018-09-20T17:13:16.844Z,27.67
2018-09-20T17:15:47.928Z,27.35
2018-09-20T17:18:18.371Z,26.99
2018-09-20T17:20:48.972Z,26.89
2018-09-20T17:23:20.503Z,26.94
2018-09-20T17:25:50.744Z,26.97
2018-09-20T17:28:21.421Z,26.76
2018-09-20T17:30:52.094Z,26.51
2018-09-20T17:33:22.340Z,26.47
2018-09-20T17:35:54.029Z,26.40
2018-09-20T17:38:26.108Z,26.32
2018-09-20T17:41:04.632Z,26.03
2018-09-20T17:43:41.696Z,26.17
2018-09-20T17:46:12.198Z,26.26
2018-09-20T17:48:42.813Z,25.64
2018-09-20T17:51:14.350Z,25.54
2018-09-20T17:53:46.692Z,24.85
2018-09-20T17:56:18.304Z,24.86
2018-09-20T17:58:50.376Z,24.73
2018-09-20T18:01:21.221Z,24.87
2018-09-20T18:03:51.808Z,25.02
2018-09-20T18:06:22.113Z,25.08
2018-09-20T18:08:52.725Z,25.10
2018-09-20T18:11:23.259Z,25.22
2018-09-20T18:14:08.596Z,25.31
2018-09-20T18:16:39.105Z,25.30
2018-09-20T18:19:09.990Z,25.34
2018-09-20T18:21:40.795Z,25.61
2018-09-20T18:24:11.728Z,25.67
2018-09-20T18:26:43.190Z,25.53
2018-09-20T18:29:13.952Z,25.30
2018-09-20T18:31:44.506Z,25.36
2018-09-20T18:34:15.893Z,25.61
2018-09-20T18:36:46.281Z,26.33
2018-09-20T18:39:18.207Z,25.45
2018-09-20T18:41:49.135Z,24.72
2018-09-20T18:44:19.342Z,24.49
2018-09-20T18:46:49.861Z,24.50
2018-09-20T18:49:20.532Z,24.63
2018-09-20T18:51:50.999Z,24.64
2018-09-20T18:54:21.793Z,24.87
2018-09-20T18:56:52.089Z,25.64
2018-09-20T18:59:22.664Z,26.14
2018-09-20T19:01:53.164Z,26.42
2018-09-20T19:04:23.911Z,26.59
2018-09-20T19:06:54.657Z,26.71
2018-09-20T19:09:25.221Z,26.79
2018-09-20T19:11:55.737Z,26.82
2018-09-20T19:14:26.754Z,26.80
2018-09-20T19:16:57.721Z,26.81
2018-09-20T19:19:28.306Z,26.85
2018-09-20T19:21:58.913Z,26.72
2018-09-20T19:24:29.291Z,26.18
2018-09-20T19:26:59.943Z,25.36
2018-09-20T19:29:31.165Z,25.15
2018-09-20T19:32:01.828Z,25.21
2018-09-20T19:34:32.271Z,25.19
2018-09-20T19:37:02.813Z,24.21
2018-09-20T19:39:33.556Z,23.90
2018-09-20T19:42:04.078Z,24.55
2018-09-20T19:44:35.333Z,25.30
2018-09-20T19:47:06.353Z,25.72
2018-09-20T19:49:36.880Z,24.43
2018-09-20T19:52:07.860Z,23.80
2018-09-20T19:54:38.750Z,23.33
2018-09-20T19:57:09.331Z,23.87
2018-09-20T19:59:40.632Z,24.07
2018-09-20T20:02:16.520Z,23.75
2018-09-20T20:04:46.848Z,23.65
2018-09-20T20:07:17.170Z,23.25
2018-09-20T20:09:47.744Z,23.11
2018-09-20T20:12:18.502Z,23.18
2018-09-20T20:14:49.060Z,23.09
2018-09-20T20:17:19.584Z,23.20
2018-09-20T20:19:50.370Z,24.15
2018-09-20T20:22:21.138Z,24.68
2018-09-20T20:24:52.425Z,24.69
2018-09-20T20:27:26.983Z,24.53
2018-09-20T20:29:57.516Z,24.31
2018-09-20T20:32:28.053Z,23.99
2018-09-20T20:34:58.906Z,23.88
2018-09-20T20:37:29.544Z,23.58
2018-09-20T20:40:00.894Z,23.65
2018-09-20T20:42:31.708Z,23.80
2018-09-20T20:45:05.820Z,23.96
2018-09-20T20:47:36.504Z,24.05
2018-09-20T20:50:08.020Z,23.52
2018-09-20T20:52:38.268Z,23.08
2018-09-20T20:55:10.376Z,22.55
2018-09-20T20:57:41.211Z,22.29
2018-09-20T21:00:12.113Z,22.79
2018-09-20T21:02:42.688Z,22.77
2018-09-20T21:05:13.201Z,22.70
2018-09-20T21:07:43.576Z,22.49
2018-09-20T21:10:16.976Z,22.34
2018-09-20T21:12:47.565Z,22.74
2018-09-20T21:15:18.101Z,23.59
2018-09-20T21:17:48.633Z,24.03
2018-09-20T21:20:19.513Z,23.02
2018-09-20T21:22:49.732Z,22.75
2018-09-20T21:25:20.437Z,22.58
2018-09-20T21:27:50.989Z,22.68
2018-09-20T21:30:21.870Z,22.25
2018-09-20T21:32:53.049Z,22.36
2018-09-20T21:35:24.456Z,22.86
2018-09-20T21:37:55.008Z,22.86
2018-09-20T21:40:26.150Z,23.24
2018-09-20T21:42:57.217Z,23.74
2018-09-20T21:45:27.864Z,24.07
2018-09-20T21:47:58.442Z,24.22
2018-09-20T21:50:28.733Z,24.10
2018-09-20T21:52:59.722Z,23.79
2018-09-20T21:55:30.093Z,23.47
2018-09-20T21:58:00.813Z,23.42
2018-09-20T22:00:31.149Z,23.43
2018-09-20T22:03:02.668Z,23.18
2018-09-20T22:05:34.709Z,22.88
2018-09-20T22:08:05.056Z,22.70
2018-09-20T22:10:35.855Z,22.42
2018-09-20T22:13:09.627Z,22.23
2018-09-20T22:15:40.148Z,22.33
2018-09-20T22:18:10.454Z,22.36
2018-09-20T22:20:41.536Z,22.58
2018-09-20T22:23:12.151Z,22.71
2018-09-20T22:25:42.430Z,22.93
2018-09-20T22:28:12.967Z,23.14
2018-09-20T22:30:43.392Z,22.88
2018-09-20T22:33:13.656Z,22.39
2018-09-20T22:35:44.649Z,22.47
2018-09-20T22:38:15.524Z,22.71
2018-09-20T22:40:45.789Z,22.75
2018-09-20T22:43:16.630Z,22.90
2018-09-20T22:45:47.373Z,22.85
2018-09-20T22:48:18.136Z,22.83
2018-09-20T22:50:48.650Z,22.58
2018-09-20T22:53:19.175Z,22.40
2018-09-20T22:55:49.735Z,22.44
2018-09-20T22:58:20.345Z,22.21
2018-09-20T23:00:51.080Z,22.36
2018-09-20T23:03:21.928Z,22.48
2018-09-20T23:05:52.492Z,22.52
2018-09-20T23:08:23.146Z,22.21
2018-09-20T23:10:55.429Z,22.03
2018-09-20T23:13:26.192Z,21.87
2018-09-20T23:15:56.734Z,22.09
2018-09-20T23:18:27.703Z,22.22
2018-09-20T23:20:58.204Z,22.45
2018-09-20T23:23:28.733Z,22.66
2018-09-20T23:25:59.344Z,22.82
2018-09-20T23:28:29.692Z,22.94
2018-09-20T23:31:00.195Z,22.97
2018-09-20T23:33:30.687Z,22.99
2018-09-20T23:36:01.296Z,22.92
2018-09-20T23:38:32.431Z,22.51
2018-09-20T23:41:03.120Z,22.42
2018-09-20T23:43:33.691Z,22.25
2018-09-20T23:46:04.265Z,22.40
2018-09-20T23:48:34.557Z,22.49
2018-09-20T23:51:05.376Z,21.76
2018-09-20T23:53:35.892Z,22.09
2018-09-20T23:56:06.219Z,22.30
2018-09-20T23:58:36.947Z,22.22
